Mc Donald, Kansas
Current Conditions -  °F | °C
As of 7:15 PM on Monday 20 Oct 2014 (Local Time) from KSYF Reporting Station
Clear Clear  
Wind Chill: 63°   Ceiling: Unl
Heat Index: 63°   Visibility: 10mi
Dew Point: 37°   Wind: 10mph
Humidity: 38%   Direction: 160°SSE
Pressure: 30.08"   Gusts: NA
Location:  39.7854°N, 101.298°W
Report Text: KSYF 210015Z AUTO 16009KT 10SM CLR 17/03 A3008 RMK AO2 T01710028
Loading
Personal Weather Stations






























Interactive Weather Map
Tropical Storm Tracking
New forecast layout! Learn more

10-Day Weather Forecast

Advertisements
Track Severe Weather on mobile